sensor_id;sensor_type;location;lat;lon;timestamp;P1;durP1;ratioP1;P2;durP2;ratioP2
40204;SDS011;26963;42.666;23.366;2023-02-24T00:01:51;11.00;;;7.68;;
40204;SDS011;26963;42.666;23.366;2023-02-24T00:04:24;10.73;;;7.38;;
40204;SDS011;26963;42.666;23.366;2023-02-24T00:06:50;12.00;;;7.80;;
40204;SDS011;26963;42.666;23.366;2023-02-24T00:09:16;10.93;;;7.97;;
40204;SDS011;26963;42.666;23.366;2023-02-24T00:11:45;12.35;;;7.63;;
40204;SDS011;26963;42.666;23.366;2023-02-24T00:16:44;11.23;;;7.50;;
40204;SDS011;26963;42.666;23.366;2023-02-24T00:19:15;11.85;;;7.90;;
40204;SDS011;26963;42.666;23.366;2023-02-24T00:21:43;11.25;;;7.88;;
40204;SDS011;26963;42.666;23.366;2023-02-24T00:24:10;10.82;;;7.03;;
40204;SDS011;26963;42.666;23.366;2023-02-24T00:26:36;10.18;;;7.40;;
40204;SDS011;26963;42.666;23.366;2023-02-24T00:29:06;12.40;;;8.77;;
40204;SDS011;26963;42.666;23.366;2023-02-24T00:31:33;11.90;;;7.82;;
40204;SDS011;26963;42.666;23.366;2023-02-24T00:34:04;10.65;;;7.40;;
40204;SDS011;26963;42.666;23.366;2023-02-24T00:36:31;9.90;;;7.05;;
40204;SDS011;26963;42.666;23.366;2023-02-24T00:38:59;11.10;;;7.05;;
40204;SDS011;26963;42.666;23.366;2023-02-24T00:41:29;8.32;;;6.10;;
40204;SDS011;26963;42.666;23.366;2023-02-24T00:43:58;8.95;;;6.00;;
40204;SDS011;26963;42.666;23.366;2023-02-24T00:46:32;10.18;;;7.07;;
40204;SDS011;26963;42.666;23.366;2023-02-24T00:49:00;10.05;;;6.70;;
40204;SDS011;26963;42.666;23.366;2023-02-24T00:51:30;9.50;;;6.60;;
40204;SDS011;26963;42.666;23.366;2023-02-24T00:54:00;8.68;;;6.25;;
40204;SDS011;26963;42.666;23.366;2023-02-24T00:56:26;9.13;;;6.38;;
40204;SDS011;26963;42.666;23.366;2023-02-24T00:58:53;10.40;;;7.38;;
40204;SDS011;26963;42.666;23.366;2023-02-24T01:01:24;10.63;;;7.20;;
40204;SDS011;26963;42.666;23.366;2023-02-24T01:03:53;9.00;;;6.95;;
40204;SDS011;26963;42.666;23.366;2023-02-24T01:06:19;10.10;;;7.72;;
40204;SDS011;26963;42.666;23.366;2023-02-24T01:08:47;10.55;;;7.00;;
40204;SDS011;26963;42.666;23.366;2023-02-24T01:11:14;10.43;;;7.15;;
40204;SDS011;26963;42.666;23.366;2023-02-24T01:13:59;10.50;;;7.35;;
40204;SDS011;26963;42.666;23.366;2023-02-24T01:16:28;11.27;;;7.57;;
40204;SDS011;26963;42.666;23.366;2023-02-24T01:18:53;9.20;;;7.25;;
40204;SDS011;26963;42.666;23.366;2023-02-24T01:21:19;9.63;;;7.47;;
40204;SDS011;26963;42.666;23.366;2023-02-24T01:23:46;11.48;;;7.85;;
40204;SDS011;26963;42.666;23.366;2023-02-24T01:26:13;12.05;;;7.70;;
40204;SDS011;26963;42.666;23.366;2023-02-24T01:28:40;8.43;;;6.60;;
40204;SDS011;26963;42.666;23.366;2023-02-24T01:31:06;8.73;;;6.35;;
40204;SDS011;26963;42.666;23.366;2023-02-24T01:33:32;8.20;;;6.43;;
40204;SDS011;26963;42.666;23.366;2023-02-24T01:36:15;9.73;;;6.95;;
40204;SDS011;26963;42.666;23.366;2023-02-24T01:38:43;10.05;;;7.22;;
40204;SDS011;26963;42.666;23.366;2023-02-24T01:41:10;10.07;;;7.45;;
40204;SDS011;26963;42.666;23.366;2023-02-24T01:46:26;9.00;;;6.97;;
40204;SDS011;26963;42.666;23.366;2023-02-24T01:49:00;10.15;;;6.95;;
40204;SDS011;26963;42.666;23.366;2023-02-24T01:51:33;9.73;;;7.10;;
40204;SDS011;26963;42.666;23.366;2023-02-24T01:54:02;8.93;;;6.68;;
40204;SDS011;26963;42.666;23.366;2023-02-24T01:56:31;8.65;;;7.05;;
40204;SDS011;26963;42.666;23.366;2023-02-24T01:58:57;10.80;;;6.57;;
40204;SDS011;26963;42.666;23.366;2023-02-24T02:01:24;10.13;;;6.65;;
40204;SDS011;26963;42.666;23.366;2023-02-24T02:03:50;10.07;;;6.47;;
40204;SDS011;26963;42.666;23.366;2023-02-24T02:06:20;8.60;;;6.13;;
40204;SDS011;26963;42.666;23.366;2023-02-24T02:08:45;9.55;;;6.95;;
40204;SDS011;26963;42.666;23.366;2023-02-24T02:11:13;10.43;;;7.32;;
40204;SDS011;26963;42.666;23.366;2023-02-24T02:16:21;9.27;;;6.30;;
40204;SDS011;26963;42.666;23.366;2023-02-24T02:40:43;11.88;;;7.00;;
40204;SDS011;26963;42.666;23.366;2023-02-24T02:45:46;9.02;;;6.45;;
40204;SDS011;26963;42.666;23.366;2023-02-24T02:48:46;10.23;;;6.53;;
40204;SDS011;26963;42.666;23.366;2023-02-24T02:51:18;10.45;;;6.18;;
40204;SDS011;26963;42.666;23.366;2023-02-24T02:54:01;8.68;;;6.15;;
40204;SDS011;26963;42.666;23.366;2023-02-24T02:58:58;8.88;;;6.03;;
40204;SDS011;26963;42.666;23.366;2023-02-24T03:01:27;8.40;;;5.50;;
40204;SDS011;26963;42.666;23.366;2023-02-24T03:03:57;8.98;;;5.60;;
40204;SDS011;26963;42.666;23.366;2023-02-24T03:06:31;9.10;;;6.20;;
40204;SDS011;26963;42.666;23.366;2023-02-24T03:09:33;8.77;;;5.80;;
40204;SDS011;26963;42.666;23.366;2023-02-24T03:11:58;9.60;;;6.43;;
40204;SDS011;26963;42.666;23.366;2023-02-24T03:14:32;11.45;;;7.07;;
40204;SDS011;26963;42.666;23.366;2023-02-24T03:17:02;15.88;;;8.18;;
40204;SDS011;26963;42.666;23.366;2023-02-24T03:19:32;12.95;;;8.75;;
40204;SDS011;26963;42.666;23.366;2023-02-24T03:23:03;9.23;;;6.47;;
40204;SDS011;26963;42.666;23.366;2023-02-24T03:25:05;10.52;;;5.82;;
40204;SDS011;26963;42.666;23.366;2023-02-24T03:27:34;8.43;;;5.10;;
40204;SDS011;26963;42.666;23.366;2023-02-24T03:30:05;7.95;;;5.40;;
40204;SDS011;26963;42.666;23.366;2023-02-24T03:32:56;7.53;;;4.97;;
40204;SDS011;26963;42.666;23.366;2023-02-24T03:35:39;9.02;;;5.63;;
40204;SDS011;26963;42.666;23.366;2023-02-24T03:38:06;8.38;;;5.22;;
40204;SDS011;26963;42.666;23.366;2023-02-24T03:40:35;7.05;;;5.00;;
40204;SDS011;26963;42.666;23.366;2023-02-24T03:45:46;8.90;;;5.43;;
40204;SDS011;26963;42.666;23.366;2023-02-24T03:48:12;8.93;;;6.20;;
40204;SDS011;26963;42.666;23.366;2023-02-24T03:50:39;9.13;;;5.50;;
40204;SDS011;26963;42.666;23.366;2023-02-24T04:07:01;12.15;;;7.18;;
40204;SDS011;26963;42.666;23.366;2023-02-24T04:09:44;12.88;;;7.55;;
40204;SDS011;26963;42.666;23.366;2023-02-24T04:12:25;13.20;;;7.68;;
40204;SDS011;26963;42.666;23.366;2023-02-24T04:15:14;10.65;;;6.70;;
40204;SDS011;26963;42.666;23.366;2023-02-24T04:17:46;10.90;;;6.65;;
40204;SDS011;26963;42.666;23.366;2023-02-24T04:20:17;10.85;;;7.05;;
40204;SDS011;26963;42.666;23.366;2023-02-24T04:22:52;10.13;;;5.78;;
40204;SDS011;26963;42.666;23.366;2023-02-24T04:25:23;8.77;;;5.68;;
40204;SDS011;26963;42.666;23.366;2023-02-24T04:27:55;14.52;;;8.15;;
40204;SDS011;26963;42.666;23.366;2023-02-24T04:30:24;9.98;;;6.65;;
40204;SDS011;26963;42.666;23.366;2023-02-24T04:32:52;14.57;;;9.45;;
40204;SDS011;26963;42.666;23.366;2023-02-24T04:35:18;12.18;;;8.00;;
40204;SDS011;26963;42.666;23.366;2023-02-24T04:37:45;15.65;;;8.95;;
40204;SDS011;26963;42.666;23.366;2023-02-24T04:40:14;16.67;;;8.48;;
40204;SDS011;26963;42.666;23.366;2023-02-24T04:42:42;13.48;;;7.97;;
40204;SDS011;26963;42.666;23.366;2023-02-24T04:45:21;14.70;;;8.25;;
40204;SDS011;26963;42.666;23.366;2023-02-24T04:47:52;13.93;;;8.02;;
40204;SDS011;26963;42.666;23.366;2023-02-24T04:50:27;12.52;;;7.72;;
40204;SDS011;26963;42.666;23.366;2023-02-24T04:52:55;11.40;;;6.55;;
40204;SDS011;26963;42.666;23.366;2023-02-24T04:55:26;11.35;;;7.22;;
40204;SDS011;26963;42.666;23.366;2023-02-24T04:57:57;10.25;;;6.18;;
40204;SDS011;26963;42.666;23.366;2023-02-24T05:00:24;10.38;;;6.00;;
40204;SDS011;26963;42.666;23.366;2023-02-24T05:02:58;10.85;;;5.63;;
40204;SDS011;26963;42.666;23.366;2023-02-24T05:05:25;8.50;;;5.82;;
40204;SDS011;26963;42.666;23.366;2023-02-24T05:07:56;7.95;;;4.30;;
40204;SDS011;26963;42.666;23.366;2023-02-24T05:10:39;6.53;;;4.30;;
40204;SDS011;26963;42.666;23.366;2023-02-24T05:13:06;9.52;;;5.93;;
40204;SDS011;26963;42.666;23.366;2023-02-24T05:15:33;11.13;;;7.18;;
40204;SDS011;26963;42.666;23.366;2023-02-24T05:18:04;14.48;;;9.23;;
40204;SDS011;26963;42.666;23.366;2023-02-24T05:20:38;15.20;;;10.07;;
40204;SDS011;26963;42.666;23.366;2023-02-24T05:23:26;18.67;;;10.80;;
40204;SDS011;26963;42.666;23.366;2023-02-24T05:26:13;15.65;;;10.15;;
40204;SDS011;26963;42.666;23.366;2023-02-24T05:28:41;17.63;;;10.75;;
40204;SDS011;26963;42.666;23.366;2023-02-24T05:31:10;13.55;;;8.48;;
40204;SDS011;26963;42.666;23.366;2023-02-24T05:33:40;15.63;;;8.00;;
40204;SDS011;26963;42.666;23.366;2023-02-24T05:36:11;15.13;;;9.38;;
40204;SDS011;26963;42.666;23.366;2023-02-24T05:38:41;12.82;;;8.05;;
40204;SDS011;26963;42.666;23.366;2023-02-24T05:41:10;14.75;;;9.55;;
40204;SDS011;26963;42.666;23.366;2023-02-24T05:43:52;10.85;;;6.25;;
40204;SDS011;26963;42.666;23.366;2023-02-24T05:46:23;10.07;;;5.90;;
40204;SDS011;26963;42.666;23.366;2023-02-24T05:49:00;14.27;;;7.22;;
40204;SDS011;26963;42.666;23.366;2023-02-24T05:51:34;14.00;;;9.15;;
40204;SDS011;26963;42.666;23.366;2023-02-24T05:54:07;14.90;;;7.85;;
40204;SDS011;26963;42.666;23.366;2023-02-24T05:56:35;16.17;;;8.73;;
40204;SDS011;26963;42.666;23.366;2023-02-24T05:59:04;15.02;;;8.52;;
40204;SDS011;26963;42.666;23.366;2023-02-24T06:01:34;16.23;;;7.95;;
40204;SDS011;26963;42.666;23.366;2023-02-24T06:04:02;21.17;;;10.35;;
40204;SDS011;26963;42.666;23.366;2023-02-24T06:06:38;19.48;;;10.73;;
40204;SDS011;26963;42.666;23.366;2023-02-24T06:09:08;17.08;;;9.88;;
40204;SDS011;26963;42.666;23.366;2023-02-24T06:11:40;12.68;;;7.32;;
40204;SDS011;26963;42.666;23.366;2023-02-24T06:14:06;12.50;;;7.97;;
40204;SDS011;26963;42.666;23.366;2023-02-24T06:16:34;12.32;;;7.82;;
40204;SDS011;26963;42.666;23.366;2023-02-24T06:19:03;11.30;;;7.25;;
40204;SDS011;26963;42.666;23.366;2023-02-24T06:21:29;10.30;;;6.50;;
40204;SDS011;26963;42.666;23.366;2023-02-24T06:23:55;15.48;;;9.02;;
40204;SDS011;26963;42.666;23.366;2023-02-24T06:26:22;12.75;;;7.43;;
40204;SDS011;26963;42.666;23.366;2023-02-24T06:28:51;9.80;;;6.65;;
40204;SDS011;26963;42.666;23.366;2023-02-24T06:31:18;11.82;;;7.15;;
40204;SDS011;26963;42.666;23.366;2023-02-24T06:33:45;13.05;;;8.07;;
40204;SDS011;26963;42.666;23.366;2023-02-24T06:36:11;12.50;;;7.13;;
40204;SDS011;26963;42.666;23.366;2023-02-24T06:38:38;14.20;;;8.25;;
40204;SDS011;26963;42.666;23.366;2023-02-24T06:41:05;18.45;;;10.43;;
40204;SDS011;26963;42.666;23.366;2023-02-24T06:43:44;16.30;;;8.90;;
40204;SDS011;26963;42.666;23.366;2023-02-24T06:46:13;13.68;;;7.85;;
40204;SDS011;26963;42.666;23.366;2023-02-24T06:48:40;14.98;;;8.88;;
40204;SDS011;26963;42.666;23.366;2023-02-24T06:51:07;16.23;;;8.73;;
40204;SDS011;26963;42.666;23.366;2023-02-24T06:53:35;14.55;;;8.15;;
40204;SDS011;26963;42.666;23.366;2023-02-24T06:56:10;18.05;;;9.18;;
40204;SDS011;26963;42.666;23.366;2023-02-24T06:58:45;11.82;;;7.97;;
40204;SDS011;26963;42.666;23.366;2023-02-24T07:01:13;14.77;;;7.65;;
40204;SDS011;26963;42.666;23.366;2023-02-24T07:03:40;13.32;;;7.05;;
40204;SDS011;26963;42.666;23.366;2023-02-24T07:06:12;12.13;;;6.78;;
40204;SDS011;26963;42.666;23.366;2023-02-24T07:08:50;11.45;;;6.95;;
40204;SDS011;26963;42.666;23.366;2023-02-24T07:11:17;13.80;;;7.97;;
40204;SDS011;26963;42.666;23.366;2023-02-24T07:13:44;12.55;;;7.28;;
40204;SDS011;26963;42.666;23.366;2023-02-24T07:16:12;12.85;;;7.38;;
40204;SDS011;26963;42.666;23.366;2023-02-24T07:18:40;14.75;;;8.07;;
40204;SDS011;26963;42.666;23.366;2023-02-24T07:21:09;17.38;;;8.38;;
40204;SDS011;26963;42.666;23.366;2023-02-24T07:23:40;11.40;;;7.10;;
40204;SDS011;26963;42.666;23.366;2023-02-24T07:26:08;13.10;;;8.00;;
40204;SDS011;26963;42.666;23.366;2023-02-24T07:28:36;11.60;;;6.82;;
40204;SDS011;26963;42.666;23.366;2023-02-24T07:31:07;11.75;;;6.97;;
40204;SDS011;26963;42.666;23.366;2023-02-24T07:33:35;12.20;;;7.82;;
40204;SDS011;26963;42.666;23.366;2023-02-24T07:36:01;15.43;;;6.93;;
40204;SDS011;26963;42.666;23.366;2023-02-24T07:38:33;12.23;;;7.30;;
40204;SDS011;26963;42.666;23.366;2023-02-24T07:41:00;12.93;;;7.15;;
40204;SDS011;26963;42.666;23.366;2023-02-24T07:43:26;12.32;;;6.78;;
40204;SDS011;26963;42.666;23.366;2023-02-24T07:45:52;10.40;;;6.57;;
40204;SDS011;26963;42.666;23.366;2023-02-24T07:48:17;13.32;;;6.90;;
40204;SDS011;26963;42.666;23.366;2023-02-24T07:50:43;13.35;;;6.60;;
40204;SDS011;26963;42.666;23.366;2023-02-24T07:53:08;13.57;;;7.10;;
40204;SDS011;26963;42.666;23.366;2023-02-24T07:55:34;13.98;;;6.55;;
40204;SDS011;26963;42.666;23.366;2023-02-24T07:58:00;12.73;;;7.40;;
40204;SDS011;26963;42.666;23.366;2023-02-24T08:00:29;25.77;;;14.35;;
40204;SDS011;26963;42.666;23.366;2023-02-24T08:03:13;17.77;;;11.18;;
40204;SDS011;26963;42.666;23.366;2023-02-24T08:05:39;17.33;;;8.18;;
40204;SDS011;26963;42.666;23.366;2023-02-24T08:08:07;16.10;;;8.27;;
40204;SDS011;26963;42.666;23.366;2023-02-24T08:10:33;14.60;;;8.05;;
40204;SDS011;26963;42.666;23.366;2023-02-24T08:13:04;14.77;;;7.85;;
40204;SDS011;26963;42.666;23.366;2023-02-24T08:15:30;12.65;;;7.95;;
40204;SDS011;26963;42.666;23.366;2023-02-24T08:17:59;14.48;;;7.10;;
40204;SDS011;26963;42.666;23.366;2023-02-24T08:20:26;15.05;;;7.82;;
40204;SDS011;26963;42.666;23.366;2023-02-24T08:23:00;15.90;;;8.05;;
40204;SDS011;26963;42.666;23.366;2023-02-24T08:25:27;18.02;;;8.98;;
40204;SDS011;26963;42.666;23.366;2023-02-24T08:27:59;13.32;;;8.40;;
40204;SDS011;26963;42.666;23.366;2023-02-24T08:30:30;15.95;;;8.27;;
40204;SDS011;26963;42.666;23.366;2023-02-24T08:33:02;16.23;;;8.35;;
40204;SDS011;26963;42.666;23.366;2023-02-24T08:35:30;14.80;;;8.45;;
40204;SDS011;26963;42.666;23.366;2023-02-24T08:38:10;15.70;;;8.55;;
40204;SDS011;26963;42.666;23.366;2023-02-24T08:40:39;19.40;;;8.38;;
40204;SDS011;26963;42.666;23.366;2023-02-24T08:45:55;14.45;;;8.10;;
40204;SDS011;26963;42.666;23.366;2023-02-24T08:48:33;13.88;;;8.75;;
40204;SDS011;26963;42.666;23.366;2023-02-24T08:51:05;15.10;;;7.88;;
40204;SDS011;26963;42.666;23.366;2023-02-24T08:53:33;14.15;;;8.52;;
40204;SDS011;26963;42.666;23.366;2023-02-24T08:55:59;13.20;;;7.65;;
40204;SDS011;26963;42.666;23.366;2023-02-24T08:58:37;11.85;;;7.95;;
40204;SDS011;26963;42.666;23.366;2023-02-24T09:01:17;14.13;;;8.68;;
40204;SDS011;26963;42.666;23.366;2023-02-24T09:03:57;14.70;;;8.88;;
40204;SDS011;26963;42.666;23.366;2023-02-24T09:09:09;16.60;;;8.85;;
40204;SDS011;26963;42.666;23.366;2023-02-24T09:11:54;13.45;;;8.52;;
40204;SDS011;26963;42.666;23.366;2023-02-24T09:14:22;15.40;;;9.07;;
40204;SDS011;26963;42.666;23.366;2023-02-24T09:16:50;17.83;;;9.63;;
40204;SDS011;26963;42.666;23.366;2023-02-24T09:20:09;13.35;;;8.55;;
40204;SDS011;26963;42.666;23.366;2023-02-24T09:22:15;13.57;;;8.75;;
40204;SDS011;26963;42.666;23.366;2023-02-24T09:25:05;14.90;;;8.90;;
40204;SDS011;26963;42.666;23.366;2023-02-24T09:28:09;19.88;;;9.15;;
40204;SDS011;26963;42.666;23.366;2023-02-24T09:30:42;14.00;;;8.73;;
40204;SDS011;26963;42.666;23.366;2023-02-24T09:33:19;11.82;;;8.25;;
40204;SDS011;26963;42.666;23.366;2023-02-24T09:38:39;16.00;;;9.00;;
40204;SDS011;26963;42.666;23.366;2023-02-24T09:41:40;16.67;;;8.80;;
40204;SDS011;26963;42.666;23.366;2023-02-24T09:52:51;15.20;;;8.88;;
40204;SDS011;26963;42.666;23.366;2023-02-24T09:55:26;16.00;;;10.25;;
40204;SDS011;26963;42.666;23.366;2023-02-24T10:09:32;16.88;;;9.23;;
40204;SDS011;26963;42.666;23.366;2023-02-24T10:17:40;17.73;;;9.30;;
40204;SDS011;26963;42.666;23.366;2023-02-24T10:20:18;16.58;;;9.00;;
40204;SDS011;26963;42.666;23.366;2023-02-24T10:29:10;13.20;;;8.40;;
40204;SDS011;26963;42.666;23.366;2023-02-24T10:31:50;15.40;;;8.85;;
40204;SDS011;26963;42.666;23.366;2023-02-24T10:34:24;14.15;;;8.77;;
40204;SDS011;26963;42.666;23.366;2023-02-24T10:36:56;13.57;;;8.63;;
40204;SDS011;26963;42.666;23.366;2023-02-24T10:39:25;16.38;;;9.52;;
40204;SDS011;26963;42.666;23.366;2023-02-24T10:41:58;16.83;;;9.48;;
40204;SDS011;26963;42.666;23.366;2023-02-24T10:44:43;15.45;;;9.48;;
40204;SDS011;26963;42.666;23.366;2023-02-24T10:47:23;14.02;;;9.48;;
40204;SDS011;26963;42.666;23.366;2023-02-24T10:50:03;14.73;;;9.68;;
40204;SDS011;26963;42.666;23.366;2023-02-24T10:57:53;16.33;;;10.80;;
40204;SDS011;26963;42.666;23.366;2023-02-24T11:00:41;16.50;;;11.50;;
40204;SDS011;26963;42.666;23.366;2023-02-24T11:03:31;17.10;;;11.57;;
40204;SDS011;26963;42.666;23.366;2023-02-24T11:06:21;17.65;;;10.15;;
40204;SDS011;26963;42.666;23.366;2023-02-24T11:09:19;15.23;;;10.68;;
40204;SDS011;26963;42.666;23.366;2023-02-24T11:11:51;13.70;;;9.95;;
40204;SDS011;26963;42.666;23.366;2023-02-24T11:14:53;14.45;;;10.45;;
40204;SDS011;26963;42.666;23.366;2023-02-24T11:17:46;14.57;;;10.48;;
40204;SDS011;26963;42.666;23.366;2023-02-24T11:20:38;17.27;;;10.98;;
40204;SDS011;26963;42.666;23.366;2023-02-24T11:23:11;14.45;;;10.50;;
40204;SDS011;26963;42.666;23.366;2023-02-24T11:25:50;17.77;;;11.98;;
40204;SDS011;26963;42.666;23.366;2023-02-24T11:31:37;18.25;;;10.55;;
40204;SDS011;26963;42.666;23.366;2023-02-24T11:39:58;17.55;;;11.15;;
40204;SDS011;26963;42.666;23.366;2023-02-24T11:42:43;16.83;;;10.75;;
40204;SDS011;26963;42.666;23.366;2023-02-24T11:45:29;15.60;;;10.75;;
40204;SDS011;26963;42.666;23.366;2023-02-24T11:53:50;17.30;;;11.23;;
40204;SDS011;26963;42.666;23.366;2023-02-24T11:56:24;16.23;;;11.57;;
40204;SDS011;26963;42.666;23.366;2023-02-24T12:02:00;16.83;;;12.07;;
40204;SDS011;26963;42.666;23.366;2023-02-24T12:04:29;14.73;;;10.95;;
40204;SDS011;26963;42.666;23.366;2023-02-24T12:09:57;16.85;;;10.90;;
40204;SDS011;26963;42.666;23.366;2023-02-24T12:12:36;15.85;;;11.20;;
40204;SDS011;26963;42.666;23.366;2023-02-24T12:15:32;15.75;;;10.13;;
40204;SDS011;26963;42.666;23.366;2023-02-24T12:21:17;15.00;;;10.38;;
40204;SDS011;26963;42.666;23.366;2023-02-24T12:23:49;17.05;;;10.32;;
40204;SDS011;26963;42.666;23.366;2023-02-24T12:26:26;16.02;;;10.55;;
40204;SDS011;26963;42.666;23.366;2023-02-24T12:29:07;22.95;;;10.57;;
40204;SDS011;26963;42.666;23.366;2023-02-24T12:46:12;16.90;;;11.40;;
40204;SDS011;26963;42.666;23.366;2023-02-24T12:54:34;16.83;;;11.68;;
40204;SDS011;26963;42.666;23.366;2023-02-24T13:00:12;17.65;;;11.23;;
40204;SDS011;26963;42.666;23.366;2023-02-24T13:02:59;13.52;;;10.77;;
40204;SDS011;26963;42.666;23.366;2023-02-24T13:08:19;16.05;;;11.68;;
40204;SDS011;26963;42.666;23.366;2023-02-24T13:14:00;17.05;;;11.23;;
40204;SDS011;26963;42.666;23.366;2023-02-24T13:16:30;14.55;;;11.23;;
40204;SDS011;26963;42.666;23.366;2023-02-24T13:19:31;17.38;;;12.05;;
40204;SDS011;26963;42.666;23.366;2023-02-24T13:22:32;16.92;;;11.43;;
40204;SDS011;26963;42.666;23.366;2023-02-24T13:24:42;18.27;;;12.43;;
40204;SDS011;26963;42.666;23.366;2023-02-24T13:27:20;19.58;;;13.32;;
40204;SDS011;26963;42.666;23.366;2023-02-24T13:29:55;21.75;;;12.85;;
40204;SDS011;26963;42.666;23.366;2023-02-24T13:32:30;18.65;;;13.27;;
40204;SDS011;26963;42.666;23.366;2023-02-24T13:35:05;18.73;;;12.87;;
40204;SDS011;26963;42.666;23.366;2023-02-24T13:37:49;23.33;;;15.25;;
40204;SDS011;26963;42.666;23.366;2023-02-24T13:50:39;26.45;;;16.92;;
40204;SDS011;26963;42.666;23.366;2023-02-24T14:03:33;24.45;;;16.52;;
40204;SDS011;26963;42.666;23.366;2023-02-24T14:06:02;24.17;;;17.38;;
40204;SDS011;26963;42.666;23.366;2023-02-24T14:11:05;26.80;;;20.23;;
40204;SDS011;26963;42.666;23.366;2023-02-24T14:13:34;26.00;;;20.50;;
40204;SDS011;26963;42.666;23.366;2023-02-24T14:16:04;28.60;;;19.70;;
40204;SDS011;26963;42.666;23.366;2023-02-24T14:18:32;23.83;;;17.48;;
40204;SDS011;26963;42.666;23.366;2023-02-24T14:20:58;23.85;;;16.35;;
40204;SDS011;26963;42.666;23.366;2023-02-24T14:26:14;19.88;;;15.30;;
40204;SDS011;26963;42.666;23.366;2023-02-24T14:28:42;20.27;;;15.02;;
40204;SDS011;26963;42.666;23.366;2023-02-24T14:31:15;23.00;;;15.90;;
40204;SDS011;26963;42.666;23.366;2023-02-24T14:33:47;22.77;;;16.33;;
40204;SDS011;26963;42.666;23.366;2023-02-24T14:36:29;24.17;;;16.33;;
40204;SDS011;26963;42.666;23.366;2023-02-24T14:41:47;30.15;;;18.60;;
40204;SDS011;26963;42.666;23.366;2023-02-24T14:44:24;25.45;;;19.35;;
40204;SDS011;26963;42.666;23.366;2023-02-24T14:46:53;27.80;;;20.60;;
40204;SDS011;26963;42.666;23.366;2023-02-24T14:49:21;29.48;;;22.60;;
40204;SDS011;26963;42.666;23.366;2023-02-24T14:51:53;34.37;;;23.63;;
40204;SDS011;26963;42.666;23.366;2023-02-24T14:54:47;31.50;;;23.38;;
40204;SDS011;26963;42.666;23.366;2023-02-24T14:57:21;28.55;;;21.13;;
40204;SDS011;26963;42.666;23.366;2023-02-24T14:59:50;31.17;;;22.60;;
40204;SDS011;26963;42.666;23.366;2023-02-24T15:02:21;27.73;;;22.30;;
40204;SDS011;26963;42.666;23.366;2023-02-24T15:07:21;28.30;;;19.13;;
40204;SDS011;26963;42.666;23.366;2023-02-24T15:09:49;24.67;;;19.02;;
40204;SDS011;26963;42.666;23.366;2023-02-24T15:12:27;25.50;;;18.73;;
40204;SDS011;26963;42.666;23.366;2023-02-24T15:17:32;24.42;;;19.27;;
40204;SDS011;26963;42.666;23.366;2023-02-24T15:20:22;27.33;;;20.23;;
40204;SDS011;26963;42.666;23.366;2023-02-24T15:22:48;26.20;;;17.40;;
40204;SDS011;26963;42.666;23.366;2023-02-24T15:30:31;28.08;;;21.98;;
40204;SDS011;26963;42.666;23.366;2023-02-24T15:33:03;29.52;;;22.80;;
40204;SDS011;26963;42.666;23.366;2023-02-24T15:35:32;28.65;;;22.27;;
40204;SDS011;26963;42.666;23.366;2023-02-24T15:37:59;29.85;;;23.25;;
40204;SDS011;26963;42.666;23.366;2023-02-24T15:40:29;29.85;;;23.15;;
40204;SDS011;26963;42.666;23.366;2023-02-24T15:42:57;32.58;;;22.95;;
40204;SDS011;26963;42.666;23.366;2023-02-24T15:45:29;32.78;;;23.77;;
40204;SDS011;26963;42.666;23.366;2023-02-24T15:48:00;31.20;;;22.60;;
40204;SDS011;26963;42.666;23.366;2023-02-24T15:50:27;36.25;;;24.50;;
40204;SDS011;26963;42.666;23.366;2023-02-24T15:52:55;30.95;;;24.25;;
40204;SDS011;26963;42.666;23.366;2023-02-24T15:55:22;31.77;;;23.38;;
40204;SDS011;26963;42.666;23.366;2023-02-24T15:57:56;34.17;;;25.48;;
40204;SDS011;26963;42.666;23.366;2023-02-24T16:00:25;30.05;;;23.50;;
40204;SDS011;26963;42.666;23.366;2023-02-24T16:02:53;32.67;;;24.95;;
40204;SDS011;26963;42.666;23.366;2023-02-24T16:05:19;34.80;;;23.75;;
40204;SDS011;26963;42.666;23.366;2023-02-24T16:07:45;33.95;;;23.73;;
40204;SDS011;26963;42.666;23.366;2023-02-24T16:10:18;38.70;;;28.90;;
40204;SDS011;26963;42.666;23.366;2023-02-24T16:12:49;43.65;;;26.60;;
40204;SDS011;26963;42.666;23.366;2023-02-24T16:15:18;30.17;;;22.98;;
40204;SDS011;26963;42.666;23.366;2023-02-24T16:17:47;44.97;;;33.08;;
40204;SDS011;26963;42.666;23.366;2023-02-24T16:20:21;40.47;;;25.85;;
40204;SDS011;26963;42.666;23.366;2023-02-24T16:22:54;36.10;;;23.70;;
40204;SDS011;26963;42.666;23.366;2023-02-24T16:25:24;35.50;;;24.02;;
40204;SDS011;26963;42.666;23.366;2023-02-24T16:27:51;34.08;;;24.23;;
40204;SDS011;26963;42.666;23.366;2023-02-24T16:30:24;33.22;;;23.92;;
40204;SDS011;26963;42.666;23.366;2023-02-24T16:32:54;36.97;;;23.08;;
40204;SDS011;26963;42.666;23.366;2023-02-24T16:35:26;33.28;;;22.45;;
40204;SDS011;26963;42.666;23.366;2023-02-24T16:37:52;29.38;;;23.42;;
40204;SDS011;26963;42.666;23.366;2023-02-24T16:42:44;34.50;;;23.10;;
40204;SDS011;26963;42.666;23.366;2023-02-24T16:45:11;37.78;;;23.55;;
40204;SDS011;26963;42.666;23.366;2023-02-24T16:47:36;31.30;;;23.13;;
40204;SDS011;26963;42.666;23.366;2023-02-24T16:50:02;42.40;;;25.00;;
40204;SDS011;26963;42.666;23.366;2023-02-24T16:52:28;40.58;;;26.73;;
40204;SDS011;26963;42.666;23.366;2023-02-24T16:54:53;43.28;;;26.52;;
40204;SDS011;26963;42.666;23.366;2023-02-24T16:57:19;41.10;;;23.92;;
40204;SDS011;26963;42.666;23.366;2023-02-24T16:59:50;33.28;;;23.88;;
40204;SDS011;26963;42.666;23.366;2023-02-24T17:02:17;38.10;;;22.30;;
40204;SDS011;26963;42.666;23.366;2023-02-24T17:04:46;33.20;;;21.77;;
40204;SDS011;26963;42.666;23.366;2023-02-24T17:07:11;35.97;;;24.48;;
40204;SDS011;26963;42.666;23.366;2023-02-24T17:09:38;39.42;;;24.45;;
40204;SDS011;26963;42.666;23.366;2023-02-24T17:12:04;40.53;;;26.17;;
40204;SDS011;26963;42.666;23.366;2023-02-24T17:14:30;44.08;;;26.65;;
40204;SDS011;26963;42.666;23.366;2023-02-24T17:16:55;40.35;;;26.17;;
40204;SDS011;26963;42.666;23.366;2023-02-24T17:19:23;38.85;;;26.35;;
40204;SDS011;26963;42.666;23.366;2023-02-24T17:21:48;40.53;;;27.52;;
40204;SDS011;26963;42.666;23.366;2023-02-24T17:24:15;44.47;;;28.27;;
40204;SDS011;26963;42.666;23.366;2023-02-24T17:26:42;37.58;;;26.60;;
40204;SDS011;26963;42.666;23.366;2023-02-24T17:29:08;43.17;;;27.15;;
40204;SDS011;26963;42.666;23.366;2023-02-24T17:31:34;41.50;;;27.30;;
40204;SDS011;26963;42.666;23.366;2023-02-24T17:34:00;44.88;;;27.63;;
40204;SDS011;26963;42.666;23.366;2023-02-24T17:36:26;41.75;;;26.17;;
40204;SDS011;26963;42.666;23.366;2023-02-24T17:38:52;42.58;;;26.50;;
40204;SDS011;26963;42.666;23.366;2023-02-24T17:41:18;36.63;;;25.38;;
40204;SDS011;26963;42.666;23.366;2023-02-24T17:43:43;42.40;;;26.50;;
40204;SDS011;26963;42.666;23.366;2023-02-24T17:46:09;41.35;;;28.38;;
40204;SDS011;26963;42.666;23.366;2023-02-24T17:48:34;39.47;;;27.90;;
40204;SDS011;26963;42.666;23.366;2023-02-24T17:51:00;41.72;;;26.20;;
40204;SDS011;26963;42.666;23.366;2023-02-24T17:53:25;36.28;;;26.77;;
40204;SDS011;26963;42.666;23.366;2023-02-24T17:56:05;38.78;;;27.15;;
40204;SDS011;26963;42.666;23.366;2023-02-24T17:58:34;41.40;;;26.85;;